Time;durP1;ratioP1;P1;durP2;ratioP2;P2;SDS_P1;SDS_P2;PMS_P1;PMS_P2;Temp;Humidity;BMP_temperature;BMP_pressure;BME280_temperature;BME280_humidity;BME280_pressure;Samples;Min_cycle;Max_cycle;Signal;HPM_P1;HPM_P2
2023/10/14 00:01:34;;;;;;;0.00;0.00;;;;;;;13.10;100.00;100203.47;5113838;28;20028;-44
2023/10/14 00:04:04;;;;;;;0.00;0.00;;;;;;;12.99;100.00;100208.75;5114101;28;20034;-40
2023/10/14 00:06:30;;;;;;;0.00;0.00;;;;;;;13.00;100.00;100195.00;5113614;28;20051;-42
2023/10/14 00:08:58;;;;;;;0.00;0.00;;;;;;;13.03;100.00;100210.78;5113471;28;20416;-40
2023/10/14 00:11:27;;;;;;;0.00;0.00;;;;;;;12.93;100.00;100195.03;5114007;28;20240;-43
2023/10/14 00:13:52;;;;;;;0.00;0.00;;;;;;;12.95;100.00;100203.75;5114505;28;20042;-42
2023/10/14 00:16:29;;;;;;;0.00;0.00;;;;;;;12.93;100.00;100203.16;5114637;28;20032;-42
2023/10/14 00:18:59;;;;;;;0.00;0.00;;;;;;;12.89;100.00;100203.78;5114469;28;20088;-42
2023/10/14 00:21:26;;;;;;;0.00;0.00;;;;;;;12.89;100.00;100215.41;5114453;28;20274;-40
2023/10/14 00:23:57;;;;;;;0.00;0.00;;;;;;;12.88;100.00;100215.63;5114102;28;20028;-44
2023/10/14 00:26:27;;;;;;;0.00;0.00;;;;;;;12.91;100.00;100220.59;5113208;27;20039;-40
2023/10/14 00:29:10;;;;;;;0.00;0.00;;;;;;;12.87;100.00;100220.19;5113374;28;20030;-42
2023/10/14 00:31:36;;;;;;;0.00;0.00;;;;;;;12.87;100.00;100230.97;5110596;28;20419;-42
2023/10/14 00:34:01;;;;;;;0.00;0.00;;;;;;;12.90;100.00;100244.09;5114273;28;20026;-40
2023/10/14 00:36:31;;;;;;;0.00;0.00;;;;;;;12.91;100.00;100245.72;5115210;28;20468;-41
2023/10/14 00:38:56;;;;;;;0.00;0.00;;;;;;;12.92;100.00;100269.00;5115789;28;20040;-41
2023/10/14 00:41:25;;;;;;;0.00;0.00;;;;;;;12.84;100.00;100261.13;5113905;28;20069;-42
2023/10/14 00:43:51;;;;;;;0.00;0.00;;;;;;;12.85;100.00;100265.50;5111989;28;20495;-42
2023/10/14 00:46:17;;;;;;;0.00;0.00;;;;;;;12.81;100.00;100275.03;5111401;28;20091;-44
2023/10/14 00:48:46;;;;;;;0.00;0.00;;;;;;;12.84;100.00;100277.31;5128988;27;20035;-41
2023/10/14 00:51:13;;;;;;;0.00;0.00;;;;;;;12.86;100.00;100288.75;5111745;28;20030;-41
2023/10/14 00:53:39;;;;;;;0.00;0.00;;;;;;;12.86;100.00;100287.94;5094813;28;20027;-42
2023/10/14 00:56:06;;;;;;;0.00;0.00;;;;;;;12.91;100.00;100294.34;5111123;28;20015;-42
2023/10/14 00:58:31;;;;;;;0.00;0.00;;;;;;;12.86;100.00;100296.84;5113002;28;20382;-41
2023/10/14 01:00:59;;;;;;;0.00;0.00;;;;;;;12.80;100.00;100292.31;5111056;28;20093;-42
2023/10/14 01:03:32;;;;;;;0.00;0.00;;;;;;;12.82;100.00;100308.28;5112067;28;20044;-43
2023/10/14 01:06:19;;;;;;;0.00;0.00;;;;;;;12.79;100.00;100306.00;5110875;28;20035;-47
2023/10/14 01:08:49;;;;;;;0.00;0.00;;;;;;;12.76;100.00;100319.91;5109465;28;20035;-43
2023/10/14 01:11:17;;;;;;;0.00;0.00;;;;;;;12.69;100.00;100328.00;5111272;28;20032;-41
2023/10/14 01:13:45;;;;;;;0.00;0.00;;;;;;;12.62;100.00;100332.59;5110501;28;20024;-43
2023/10/14 01:16:11;;;;;;;0.00;0.00;;;;;;;12.58;100.00;100332.16;5091152;28;20073;-42
2023/10/14 01:18:39;;;;;;;0.00;0.00;;;;;;;12.54;100.00;100340.91;5112108;28;20019;-44
2023/10/14 01:21:06;;;;;;;0.00;0.00;;;;;;;12.53;100.00;100342.75;5111125;28;20147;-42
2023/10/14 01:23:39;;;;;;;0.00;0.00;;;;;;;12.56;100.00;100339.66;5110444;28;20039;-41
2023/10/14 01:26:05;;;;;;;0.00;0.00;;;;;;;12.56;100.00;100350.47;5110431;28;20036;-42
2023/10/14 01:28:31;;;;;;;0.00;0.00;;;;;;;12.58;100.00;100351.06;5111594;28;20392;-45
2023/10/14 01:31:35;;;;;;;0.00;0.00;;;;;;;12.59;100.00;100349.22;5111200;28;20024;-43
2023/10/14 01:34:08;;;;;;;0.00;0.00;;;;;;;12.61;100.00;100358.78;5125073;27;20019;-45
2023/10/14 01:36:38;;;;;;;0.00;0.00;;;;;;;12.68;100.00;100377.66;5110132;28;20036;-43
2023/10/14 01:39:09;;;;;;;0.00;0.00;;;;;;;12.65;100.00;100384.31;5111600;28;20028;-45
2023/10/14 01:41:34;;;;;;;0.00;0.00;;;;;;;12.63;100.00;100377.44;5111348;28;20536;-44
2023/10/14 01:44:05;;;;;;;0.00;0.00;;;;;;;12.61;100.00;100372.28;5109420;28;20023;-44
2023/10/14 01:46:30;;;;;;;0.00;0.00;;;;;;;12.60;100.00;100377.88;5109775;28;20023;-44
2023/10/14 01:49:00;;;;;;;0.00;0.00;;;;;;;12.60;100.00;100385.97;5110824;28;20042;-42
2023/10/14 01:51:26;;;;;;;0.00;0.00;;;;;;;12.63;100.00;100394.47;5110928;28;20489;-43
2023/10/14 01:53:52;;;;;;;0.00;0.00;;;;;;;12.64;100.00;100389.94;5110812;28;20058;-42
2023/10/14 01:56:17;;;;;;;0.00;0.00;;;;;;;12.65;100.00;100394.28;5111382;28;20028;-43
2023/10/14 01:58:43;;;;;;;0.00;0.00;;;;;;;12.68;100.00;100402.78;5111769;28;20080;-42
2023/10/14 02:03:54;;;;;;;0.00;0.00;;;;;;;12.63;100.00;100420.66;5111770;28;20124;-42
2023/10/14 02:06:26;;;;;;;0.00;0.00;;;;;;;12.56;100.00;100422.50;5104570;27;20036;-44
2023/10/14 02:08:52;;;;;;;0.00;0.00;;;;;;;12.53;100.00;100421.03;5110630;28;20031;-43
2023/10/14 02:11:21;;;;;;;0.00;0.00;;;;;;;12.47;100.00;100433.50;5111294;28;20023;-44
2023/10/14 02:13:50;;;;;;;0.00;0.00;;;;;;;12.44;100.00;100436.59;5111152;28;20381;-45
2023/10/14 02:16:15;;;;;;;0.00;0.00;;;;;;;12.49;100.00;100444.91;5112065;28;20244;-44
2023/10/14 02:18:40;;;;;;;0.00;0.00;;;;;;;12.52;100.00;100447.19;5112352;28;20144;-45
2023/10/14 02:21:16;;;;;;;0.00;0.00;;;;;;;12.51;100.00;100456.34;5112624;28;20031;-43
2023/10/14 02:23:45;;;;;;;0.00;0.00;;;;;;;12.52;100.00;100462.56;5111465;28;20027;-42
2023/10/14 02:26:10;;;;;;;0.00;0.00;;;;;;;12.52;100.00;100474.19;5111044;28;20035;-45
2023/10/14 02:28:45;;;;;;;0.00;0.00;;;;;;;12.56;100.00;100476.47;5111082;28;20054;-42
2023/10/14 02:31:17;;;;;;;0.00;0.00;;;;;;;12.52;100.00;100479.59;5111099;28;20035;-43
2023/10/14 02:33:46;;;;;;;0.00;0.00;;;;;;;12.57;100.00;100486.25;5111216;28;20127;-41
2023/10/14 02:36:16;;;;;;;0.00;0.00;;;;;;;12.63;100.00;100482.75;5110739;28;20474;-43
2023/10/14 02:38:52;;;;;;;0.00;0.00;;;;;;;12.63;100.00;100490.84;5110639;28;20027;-42
2023/10/14 02:41:17;;;;;;;0.00;0.00;;;;;;;12.62;100.00;100505.38;5111078;28;20028;-44
2023/10/14 02:43:43;;;;;;;0.00;0.00;;;;;;;12.65;100.00;100513.06;5111580;28;20034;-41
2023/10/14 02:46:17;;;;;;;0.00;0.00;;;;;;;12.69;100.00;100511.63;5110478;28;20545;-42
2023/10/14 02:48:54;;;;;;;0.00;0.00;;;;;;;12.68;100.00;100520.75;5110779;28;20027;-43
2023/10/14 02:51:39;;;;;;;0.00;0.00;;;;;;;12.66;100.00;100537.16;5111278;28;20050;-44
2023/10/14 02:54:14;;;;;;;0.00;0.00;;;;;;;12.69;100.00;100538.63;5111019;28;20051;-43
2023/10/14 02:56:55;;;;;;;0.00;0.00;;;;;;;12.64;100.00;100543.81;5111794;28;20038;-41
2023/10/14 02:59:23;;;;;;;0.00;0.00;;;;;;;12.55;100.00;100547.72;5109823;28;20481;-43
2023/10/14 03:02:09;;;;;;;0.00;0.00;;;;;;;12.51;100.00;100552.69;5112064;28;20047;-44
2023/10/14 03:04:40;;;;;;;0.00;0.00;;;;;;;12.51;100.00;100560.78;5115176;28;20034;-45
2023/10/14 03:07:08;;;;;;;0.00;0.00;;;;;;;12.48;100.00;100562.03;5112706;28;20403;-41
2023/10/14 03:09:34;;;;;;;0.00;0.00;;;;;;;12.49;100.00;100566.38;5113741;28;20028;-46
2023/10/14 03:12:00;;;;;;;0.00;0.00;;;;;;;12.55;100.00;100566.63;5113042;28;20031;-44
2023/10/14 03:14:26;;;;;;;0.00;0.00;;;;;;;12.59;100.00;100570.59;5094972;28;20100;-43
2023/10/14 03:16:52;;;;;;;0.00;0.00;;;;;;;12.59;100.00;100579.50;5113973;28;20039;-44
2023/10/14 03:19:18;;;;;;;0.00;0.00;;;;;;;12.62;100.00;100573.72;5114860;28;20024;-45
2023/10/14 03:21:58;;;;;;;0.00;0.00;;;;;;;12.57;100.00;100583.44;5114703;28;20386;-41
2023/10/14 03:24:30;;;;;;;0.00;0.00;;;;;;;12.51;100.00;100595.88;5114241;28;20111;-44
2023/10/14 03:27:04;;;;;;;0.00;0.00;;;;;;;12.49;100.00;100601.47;5103637;28;20073;-39
2023/10/14 03:29:29;;;;;;;0.00;0.00;;;;;;;12.42;100.00;100597.91;5107873;28;20073;-43
2023/10/14 03:31:55;;;;;;;0.00;0.00;;;;;;;12.45;100.00;100596.66;5113003;28;20059;-43
2023/10/14 03:34:30;;;;;;;0.00;0.00;;;;;;;12.43;100.00;100615.78;5112650;28;20019;-44
2023/10/14 03:37:00;;;;;;;0.00;0.00;;;;;;;12.46;100.00;100612.69;5112465;28;20042;-44
2023/10/14 03:39:41;;;;;;;0.00;0.00;;;;;;;12.51;100.00;100612.09;5112778;28;20502;-44
2023/10/14 03:42:10;;;;;;;0.00;0.00;;;;;;;12.45;100.00;100619.13;5112323;28;20031;-43
2023/10/14 03:44:37;;;;;;;0.00;0.00;;;;;;;12.49;100.00;100625.75;5110428;28;20118;-42
2023/10/14 03:47:03;;;;;;;0.00;0.00;;;;;;;12.54;100.00;100629.75;5112032;28;20032;-42
2023/10/14 03:49:32;;;;;;;0.00;0.00;;;;;;;12.56;100.00;100633.06;5112391;28;20027;-42
2023/10/14 03:51:57;;;;;;;0.00;0.00;;;;;;;12.55;100.00;100636.81;5112547;28;20347;-45
2023/10/14 03:54:24;;;;;;;0.00;0.00;;;;;;;12.59;100.00;100647.00;5112657;28;20795;-41
2023/10/14 03:56:50;;;;;;;0.00;0.00;;;;;;;12.57;100.00;100643.66;5094593;28;20115;-46
2023/10/14 03:59:25;;;;;;;0.00;0.00;;;;;;;12.58;100.00;100655.28;5111837;28;20020;-43
2023/10/14 04:01:54;;;;;;;0.00;0.00;;;;;;;12.55;100.00;100666.50;5111731;28;20595;-42
2023/10/14 04:04:21;;;;;;;0.00;0.00;;;;;;;12.58;100.00;100668.78;5111911;28;20067;-45
2023/10/14 04:09:45;;;;;;;0.00;0.00;;;;;;;12.51;100.00;100679.56;5112630;28;20466;-41
2023/10/14 04:12:12;;;;;;;0.00;0.00;;;;;;;12.49;100.00;100671.66;5093765;28;20028;-42
2023/10/14 04:14:39;;;;;;;0.00;0.00;;;;;;;12.46;100.00;100680.16;5111850;28;20039;-40
2023/10/14 04:17:21;;;;;;;0.00;0.00;;;;;;;12.44;100.00;100692.19;5111730;27;20038;-42
2023/10/14 04:19:52;;;;;;;0.00;0.00;;;;;;;12.42;100.00;100694.25;5086616;28;20022;-44
2023/10/14 04:25:39;;;;;;;0.00;0.00;;;;;;;12.38;100.00;100711.88;5110788;28;20111;-43
2023/10/14 04:27:45;;;;;;;0.00;0.00;;;;;;;12.35;100.00;100714.94;5103315;28;20039;-43
2023/10/14 04:30:12;;;;;;;0.00;0.00;;;;;;;12.33;100.00;100712.47;5111412;28;20489;-41
2023/10/14 04:33:03;;;;;;;0.00;0.00;;;;;;;12.25;100.00;100708.03;5111398;28;20103;-43
2023/10/14 04:35:33;;;;;;;0.00;0.00;;;;;;;12.20;100.00;100733.94;5111073;28;20118;-42
2023/10/14 04:38:13;;;;;;;0.00;0.00;;;;;;;12.13;100.00;100727.66;5110655;28;20032;-46
2023/10/14 04:40:38;;;;;;;0.00;0.00;;;;;;;12.11;100.00;100730.53;5111060;28;20083;-44
2023/10/14 04:44:00;;;;;;;0.00;0.00;;;;;;;12.04;100.00;100735.06;5111093;28;20039;-42
2023/10/14 04:46:16;;;;;;;0.00;0.00;;;;;;;12.03;100.00;100746.84;5096143;28;20043;-43
2023/10/14 04:48:58;;;;;;;0.00;0.00;;;;;;;12.00;100.00;100741.84;5111041;28;20070;-42
2023/10/14 04:51:36;;;;;;;0.00;0.00;;;;;;;11.99;100.00;100754.50;5104813;28;20094;-44
2023/10/14 04:54:01;;;;;;;0.00;0.00;;;;;;;11.98;100.00;100752.00;5110453;28;20028;-45
2023/10/14 04:56:30;;;;;;;0.00;0.00;;;;;;;12.03;100.00;100754.94;5111007;28;20542;-43
2023/10/14 04:58:56;;;;;;;0.00;0.00;;;;;;;12.04;100.00;100752.06;5110809;28;20080;-44
2023/10/14 05:01:24;;;;;;;0.00;0.00;;;;;;;12.11;100.00;100762.91;5110752;28;20035;-44
2023/10/14 05:03:55;;;;;;;;;;;;;;;12.11;100.00;100762.91;5105875;28;20039;-39
2023/10/14 05:06:21;;;;;;;0.00;0.00;;;;;;;12.16;100.00;100748.84;5109044;28;20022;-44
2023/10/14 05:08:51;;;;;;;0.00;0.00;;;;;;;12.14;100.00;100767.06;5108024;28;20107;-42
2023/10/14 05:11:22;;;;;;;0.00;0.00;;;;;;;12.15;100.00;100768.75;5099796;28;20032;-43
2023/10/14 05:16:53;;;;;;;0.00;0.00;;;;;;;12.23;100.00;100779.41;5106545;28;20509;-42
2023/10/14 05:19:25;;;;;;;0.00;0.00;;;;;;;12.24;100.00;100775.69;5109706;28;20641;-44
2023/10/14 05:22:05;;;;;;;0.00;0.00;;;;;;;12.24;100.00;100778.38;5103392;28;20447;-43
2023/10/14 05:24:31;;;;;;;0.00;0.00;;;;;;;12.21;100.00;100779.59;5103757;28;20028;-47
2023/10/14 05:26:59;;;;;;;0.00;0.00;;;;;;;12.20;100.00;100787.91;5104147;28;20080;-45
2023/10/14 05:29:26;;;;;;;0.00;0.00;;;;;;;12.17;100.00;100782.91;5103857;28;20441;-46
2023/10/14 05:31:52;;;;;;;0.00;0.00;;;;;;;12.16;100.00;100792.84;5079285;28;20024;-46
2023/10/14 05:34:24;;;;;;;0.00;0.00;;;;;;;12.19;100.00;100794.31;5100762;28;20043;-41
2023/10/14 05:36:55;;;;;;;0.00;0.00;;;;;;;12.25;100.00;100798.94;5107966;28;20352;-43
2023/10/14 05:39:21;;;;;;;0.00;0.00;;;;;;;12.25;100.00;100813.28;5107413;28;20027;-44
2023/10/14 05:41:48;;;;;;;0.00;0.00;;;;;;;12.19;100.00;100813.19;5106392;28;20020;-44
2023/10/14 05:44:14;;;;;;;0.00;0.00;;;;;;;12.12;100.00;100815.84;5111019;28;20442;-41
2023/10/14 05:46:41;;;;;;;0.00;0.00;;;;;;;12.06;100.00;100814.75;5106936;28;20168;-44
2023/10/14 05:49:07;;;;;;;0.00;0.00;;;;;;;12.13;100.00;100816.69;5108142;28;20145;-43
2023/10/14 05:51:32;;;;;;;0.00;0.00;;;;;;;12.13;100.00;100824.78;5112912;28;20114;-44
2023/10/14 05:53:58;;;;;;;0.00;0.00;;;;;;;12.15;100.00;100828.94;5091562;28;20095;-44
2023/10/14 05:56:27;;;;;;;0.00;0.00;;;;;;;12.19;100.00;100842.88;5110777;28;20466;-45
2023/10/14 05:58:53;;;;;;;0.00;0.00;;;;;;;12.19;100.00;100842.88;5076359;28;20431;-45
2023/10/14 06:01:19;;;;;;;0.00;0.00;;;;;;;12.13;100.00;100841.78;5109889;28;20024;-42
2023/10/14 06:03:45;;;;;;;0.00;0.00;;;;;;;12.14;100.00;100859.66;5111403;28;20047;-46
2023/10/14 06:06:16;;;;;;;0.00;0.00;;;;;;;12.16;100.00;100862.16;5110973;28;20031;-42
2023/10/14 06:08:46;;;;;;;0.00;0.00;;;;;;;12.15;100.00;100857.78;5110247;28;20038;-40
2023/10/14 06:11:12;;;;;;;0.00;0.00;;;;;;;12.16;100.00;100862.16;5109449;28;20050;-45
2023/10/14 06:13:37;;;;;;;0.00;0.00;;;;;;;12.21;100.00;100875.91;5111358;28;20474;-43
2023/10/14 06:16:13;;;;;;;0.00;0.00;;;;;;;12.21;100.00;100892.94;5108738;28;20035;-47
2023/10/14 06:18:40;;;;;;;0.00;0.00;;;;;;;12.19;100.00;100888.75;5111517;28;20028;-43
2023/10/14 06:21:06;;;;;;;0.00;0.00;;;;;;;12.13;100.00;100900.31;5109640;28;20037;-42
2023/10/14 06:23:32;;;;;;;0.00;0.00;;;;;;;12.16;100.00;100911.53;5110849;28;20020;-43
2023/10/14 06:25:58;;;;;;;0.00;0.00;;;;;;;12.21;100.00;100903.72;5110508;28;20035;-43
2023/10/14 06:28:24;;;;;;;0.00;0.00;;;;;;;12.27;100.00;100913.78;5110462;28;20032;-46
2023/10/14 06:30:49;;;;;;;0.00;0.00;;;;;;;12.27;100.00;100907.53;5111610;28;20042;-46
2023/10/14 06:33:15;;;;;;;0.00;0.00;;;;;;;12.27;100.00;100918.34;5110745;28;20401;-45
2023/10/14 06:35:43;;;;;;;0.00;0.00;;;;;;;12.29;100.00;100919.78;5110657;28;20102;-44
2023/10/14 06:38:10;;;;;;;0.00;0.00;;;;;;;12.28;100.00;100926.22;5091612;28;20034;-43
2023/10/14 06:40:36;;;;;;;0.00;0.00;;;;;;;12.36;100.00;100933.38;5111119;28;20178;-44
2023/10/14 06:43:09;;;;;;;0.00;0.00;;;;;;;12.44;100.00;100935.09;5109544;28;20114;-43
2023/10/14 06:45:35;;;;;;;0.00;0.00;;;;;;;12.29;100.00;100943.25;5111207;28;20027;-40
2023/10/14 06:48:03;;;;;;;0.00;0.00;;;;;;;12.07;100.00;100932.41;5109171;28;20048;-42
2023/10/14 06:50:30;;;;;;;0.00;0.00;;;;;;;11.95;100.00;100946.56;5109607;28;20028;-44
2023/10/14 06:52:59;;;;;;;0.00;0.00;;;;;;;11.86;100.00;100959.34;5108566;28;20055;-42
2023/10/14 06:55:39;;;;;;;0.00;0.00;;;;;;;11.84;100.00;100969.44;5111567;28;20040;-42
2023/10/14 06:58:11;;;;;;;0.00;0.00;;;;;;;11.81;100.00;100977.91;5107065;28;20465;-43
2023/10/14 07:00:37;;;;;;;0.00;0.00;;;;;;;11.84;100.00;100982.91;5111744;28;20032;-41
2023/10/14 07:03:08;;;;;;;0.00;0.00;;;;;;;11.84;100.00;100982.91;5112188;28;20070;-44
2023/10/14 07:05:43;;;;;;;0.00;0.00;;;;;;;11.81;100.00;100989.53;5111403;28;20043;-44
2023/10/14 07:08:11;;;;;;;0.00;0.00;;;;;;;11.84;100.00;100989.16;5108172;28;20338;-44
2023/10/14 07:10:38;;;;;;;0.00;0.00;;;;;;;11.90;100.00;100993.00;5110691;28;20070;-42
2023/10/14 07:13:03;;;;;;;0.00;0.00;;;;;;;12.04;100.00;100994.84;5108753;28;20063;-44
2023/10/14 07:15:32;;;;;;;0.00;0.00;;;;;;;12.13;100.00;100989.34;5109734;28;20531;-43
2023/10/14 07:17:58;;;;;;;0.00;0.00;;;;;;;12.21;100.00;101006.25;5110482;28;20485;-44
2023/10/14 07:20:25;;;;;;;0.00;0.00;;;;;;;12.29;100.00;101003.44;5111155;28;20107;-41
2023/10/14 07:22:50;;;;;;;0.00;0.00;;;;;;;12.45;100.00;101017.75;5111309;28;20428;-42
2023/10/14 07:25:18;;;;;;;0.00;0.00;;;;;;;12.59;100.00;101019.59;5111443;28;20024;-43
2023/10/14 07:27:44;;;;;;;0.00;0.00;;;;;;;12.68;100.00;101018.44;5111595;28;20118;-43
2023/10/14 07:30:15;;;;;;;0.00;0.00;;;;;;;12.88;100.00;101029.44;5109975;28;20116;-44
2023/10/14 07:32:47;;;;;;;0.00;0.00;;;;;;;13.42;100.00;101030.78;5110937;28;20461;-42
2023/10/14 07:35:14;;;;;;;0.00;0.00;;;;;;;14.44;100.00;101040.13;5110884;28;20474;-42
2023/10/14 07:37:50;;;;;;;0.00;0.00;;;;;;;15.48;100.00;101042.41;5110877;28;20027;-44
2023/10/14 07:40:23;;;;;;;0.00;0.00;;;;;;;16.00;100.00;101051.53;5111238;28;20020;-43
2023/10/14 07:42:56;;;;;;;0.00;0.00;;;;;;;16.36;100.00;101055.59;5111774;28;20085;-42
2023/10/14 07:45:23;;;;;;;0.00;0.00;;;;;;;16.64;100.00;101060.72;5111265;28;20027;-41
2023/10/14 07:47:49;;;;;;;0.00;0.00;;;;;;;17.45;100.00;101064.59;5114815;28;20027;-42
2023/10/14 07:50:15;;;;;;;0.00;0.00;;;;;;;17.21;100.00;101071.69;5115490;28;20083;-42
2023/10/14 07:52:41;;;;;;;0.00;0.00;;;;;;;16.83;100.00;101071.72;5114608;28;20027;-46
2023/10/14 07:55:15;;;;;;;0.00;0.00;;;;;;;16.35;100.00;101075.69;5114455;28;20462;-42
2023/10/14 07:57:40;;;;;;;0.00;0.00;;;;;;;16.65;100.00;101078.69;5114244;28;20031;-44
2023/10/14 08:00:12;;;;;;;0.00;0.00;;;;;;;17.36;100.00;101084.16;5114295;28;20031;-44
2023/10/14 08:02:42;;;;;;;0.00;0.00;;;;;;;17.07;100.00;101089.16;5113922;28;20560;-44
2023/10/14 08:05:08;;;;;;;0.00;0.00;;;;;;;17.02;100.00;101086.25;5114087;28;20172;-44
2023/10/14 08:07:40;;;;;;;0.00;0.00;;;;;;;16.55;100.00;101089.16;5113088;28;20023;-41
2023/10/14 08:10:18;;;;;;;0.00;0.00;;;;;;;16.16;100.00;101098.28;5113999;28;20061;-40
2023/10/14 08:12:45;;;;;;;0.00;0.00;;;;;;;16.37;100.00;101099.91;5114030;28;20095;-41
2023/10/14 08:15:10;;;;;;;0.00;0.00;;;;;;;16.60;100.00;101104.84;5114123;28;20110;-44
2023/10/14 08:17:36;;;;;;;0.00;0.00;;;;;;;16.22;99.98;101106.44;5113994;28;20354;-41
2023/10/14 08:20:01;;;;;;;0.00;0.00;;;;;;;15.62;100.00;101108.34;5114173;28;20089;-41
2023/10/14 08:22:28;;;;;;;0.00;0.00;;;;;;;15.14;100.00;101114.78;5113636;28;20020;-43
2023/10/14 08:24:53;;;;;;;0.00;0.00;;;;;;;15.01;100.00;101117.44;5114295;28;20056;-44
2023/10/14 08:27:18;;;;;;;0.00;0.00;;;;;;;16.11;100.00;101125.22;5113928;28;20618;-44
2023/10/14 08:29:44;;;;;;;0.00;0.00;;;;;;;16.77;100.00;101126.91;5114335;28;20027;-42
2023/10/14 08:32:09;;;;;;;0.00;0.00;;;;;;;17.28;100.00;101118.72;5113870;28;20059;-44
2023/10/14 08:34:36;;;;;;;0.00;0.00;;;;;;;17.61;100.00;101128.50;5113457;28;20034;-43
2023/10/14 08:37:02;;;;;;;0.00;0.00;;;;;;;18.11;100.00;101133.97;5113510;28;20326;-44
2023/10/14 08:39:31;;;;;;;0.00;0.00;;;;;;;18.95;96.46;101133.44;5113729;28;20035;-43
2023/10/14 08:41:57;;;;;;;0.00;0.00;;;;;;;19.63;92.29;101141.25;5113585;28;20023;-42
2023/10/14 08:44:26;;;;;;;0.00;0.00;;;;;;;19.80;89.51;101154.25;5094667;28;20368;-41
2023/10/14 08:46:52;;;;;;;0.00;0.00;;;;;;;20.04;92.93;101149.66;5112316;28;20039;-41
2023/10/14 08:49:23;;;;;;;0.00;0.00;;;;;;;19.69;81.84;101164.09;5112977;28;20151;-42
2023/10/14 08:51:48;;;;;;;0.00;0.00;;;;;;;18.88;85.59;101160.81;5095283;28;20038;-45
2023/10/14 08:54:15;;;;;;;0.00;0.00;;;;;;;17.98;92.42;101166.78;5112901;28;20035;-41
2023/10/14 08:56:42;;;;;;;0.03;0.00;;;;;;;17.08;100.00;101161.50;5113076;28;20388;-41
2023/10/14 08:59:07;;;;;;;0.00;0.00;;;;;;;16.72;98.92;101173.78;5112090;28;20469;-41
2023/10/14 09:01:34;;;;;;;0.00;0.00;;;;;;;16.57;98.97;101165.03;5112262;28;20038;-45
2023/10/14 09:03:59;;;;;;;0.00;0.00;;;;;;;16.73;100.00;101174.63;5090399;28;20063;-43
2023/10/14 09:06:25;;;;;;;0.00;0.00;;;;;;;16.98;100.00;101175.59;5090670;28;20070;-43
2023/10/14 09:08:51;;;;;;;0.00;0.00;;;;;;;16.96;100.00;101185.03;5110251;27;20564;-42
2023/10/14 09:11:28;;;;;;;0.00;0.00;;;;;;;16.66;98.85;101185.50;5114412;27;20504;-45
2023/10/14 09:14:03;;;;;;;0.00;0.00;;;;;;;16.67;98.33;101193.44;5110692;28;20423;-42
2023/10/14 09:16:32;;;;;;;0.00;0.00;;;;;;;16.32;98.94;101190.16;5110748;28;20360;-44
2023/10/14 09:18:59;;;;;;;0.00;0.00;;;;;;;15.97;100.00;101192.28;5110662;28;20028;-43
2023/10/14 09:21:25;;;;;;;0.00;0.00;;;;;;;15.76;100.00;101188.72;5110752;28;20019;-43
2023/10/14 09:23:51;;;;;;;0.00;0.00;;;;;;;15.82;100.00;101200.63;5110624;28;20042;-43
2023/10/14 09:26:18;;;;;;;0.00;0.00;;;;;;;15.59;100.00;101198.31;5104018;28;20019;-43
2023/10/14 09:28:45;;;;;;;0.00;0.00;;;;;;;15.64;100.00;101194.94;5106651;28;20381;-43
2023/10/14 09:31:11;;;;;;;0.00;0.00;;;;;;;15.65;100.00;101204.78;5091309;28;20027;-43
2023/10/14 09:33:41;;;;;;;0.00;0.00;;;;;;;15.38;100.00;101210.16;5110500;28;20285;-45
2023/10/14 09:36:11;;;;;;;0.00;0.00;;;;;;;15.35;100.00;101207.84;5106041;28;20251;-41
2023/10/14 09:38:38;;;;;;;0.00;0.00;;;;;;;15.50;100.00;101208.50;5109708;28;20035;-43
2023/10/14 09:41:05;;;;;;;0.00;0.00;;;;;;;15.74;100.00;101222.53;5110445;28;20049;-44
2023/10/14 09:43:32;;;;;;;0.00;0.00;;;;;;;15.76;100.00;101221.28;5111017;28;20032;-44
2023/10/14 09:45:59;;;;;;;0.00;0.00;;;;;;;15.51;100.00;101231.88;5111463;28;20026;-44
2023/10/14 09:48:26;;;;;;;0.00;0.00;;;;;;;15.49;100.00;101225.00;5110455;28;20031;-41
2023/10/14 09:50:56;;;;;;;0.00;0.00;;;;;;;15.52;100.00;101233.53;5110781;28;20133;-43
2023/10/14 09:53:26;;;;;;;0.00;0.00;;;;;;;15.58;100.00;101238.13;5110342;28;20035;-44
2023/10/14 09:56:05;;;;;;;0.00;0.00;;;;;;;15.53;100.00;101235.22;5110251;28;20031;-44
2023/10/14 09:58:34;;;;;;;0.00;0.00;;;;;;;15.46;100.00;101250.66;5110345;28;20080;-41
2023/10/14 10:01:01;;;;;;;0.00;0.00;;;;;;;15.25;100.00;101248.91;5092410;28;20023;-41
2023/10/14 10:03:27;;;;;;;0.00;0.00;;;;;;;14.99;100.00;101244.19;5109613;28;20051;-41
2023/10/14 10:06:14;;;;;;;0.00;0.00;;;;;;;14.92;100.00;101256.88;5089431;28;20995;-44
2023/10/14 10:08:45;;;;;;;0.00;0.00;;;;;;;14.82;100.00;101259.94;5091845;28;20081;-47
2023/10/14 10:11:11;;;;;;;0.00;0.00;;;;;;;14.73;100.00;101249.47;5109001;28;20050;-42
2023/10/14 10:13:39;;;;;;;0.00;0.00;;;;;;;14.77;100.00;101272.41;5109535;28;20024;-42
2023/10/14 10:16:05;;;;;;;0.00;0.00;;;;;;;14.83;100.00;101267.06;5109641;28;20107;-41
2023/10/14 10:18:50;;;;;;;0.00;0.00;;;;;;;14.82;100.00;101268.06;5109763;28;20110;-42
2023/10/14 10:21:20;;;;;;;0.00;0.00;;;;;;;14.94;100.00;101268.34;5108755;28;20042;-42
2023/10/14 10:23:50;;;;;;;0.00;0.00;;;;;;;15.19;100.00;101276.81;5109547;28;20051;-39
2023/10/14 10:26:17;;;;;;;0.00;0.00;;;;;;;15.40;100.00;101288.56;5125548;27;20032;-42
2023/10/14 10:28:45;;;;;;;0.00;0.00;;;;;;;15.36;100.00;101269.19;5109514;28;20482;-43
2023/10/14 10:31:14;;;;;;;;;;;;;;;15.07;100.00;101276.56;5109475;28;20360;-44
2023/10/14 10:33:52;;;;;;;0.00;0.00;;;;;;;14.91;100.00;101290.44;5109417;28;19960;-40
2023/10/14 10:36:47;;;;;;;0.00;0.00;;;;;;;14.84;98.82;101286.84;5109431;28;20042;-42
2023/10/14 10:39:15;;;;;;;0.00;0.00;;;;;;;14.97;100.00;101289.63;5107689;28;20077;-43
2023/10/14 10:41:41;;;;;;;;;;;;;;;15.22;100.00;101294.53;5091286;28;20572;-43
2023/10/14 10:44:06;;;;;;;0.00;0.00;;;;;;;15.37;100.00;101298.78;5108990;28;20003;-42
2023/10/14 10:46:46;;;;;;;0.00;0.00;;;;;;;15.56;100.00;101302.63;5109178;28;20201;-40
2023/10/14 10:49:13;;;;;;;0.00;0.00;;;;;;;15.46;100.00;101304.91;5097734;28;20031;-44
2023/10/14 10:51:47;;;;;;;0.00;0.00;;;;;;;15.19;99.36;101308.50;5109267;28;20024;-42
2023/10/14 10:54:13;;;;;;;0.00;0.00;;;;;;;14.96;100.00;101293.41;5109440;28;20036;-43
2023/10/14 10:56:41;;;;;;;0.00;0.00;;;;;;;14.83;100.00;101310.41;5109132;28;20031;-45
2023/10/14 10:59:06;;;;;;;0.00;0.00;;;;;;;14.75;100.00;101307.03;5109246;28;20020;-42
2023/10/14 11:01:32;;;;;;;0.00;0.00;;;;;;;14.75;100.00;101312.44;5108449;28;20129;-43
2023/10/14 11:04:03;;;;;;;0.00;0.00;;;;;;;14.96;100.00;101312.38;5108930;28;20024;-41
2023/10/14 11:06:30;;;;;;;0.00;0.00;;;;;;;14.84;100.00;101306.66;5089263;28;20031;-45
2023/10/14 11:08:57;;;;;;;0.00;0.00;;;;;;;14.83;100.00;101315.00;5097914;28;20050;-43
2023/10/14 11:11:27;;;;;;;;;;;;;;;14.78;100.00;101302.03;5109631;28;20621;-41
2023/10/14 11:13:52;;;;;;;0.00;0.00;;;;;;;14.79;100.00;101314.53;5109325;28;20000;-47
2023/10/14 11:16:18;;;;;;;0.00;0.00;;;;;;;14.98;100.00;101314.88;5098575;28;20512;-44
2023/10/14 11:18:48;;;;;;;0.00;0.00;;;;;;;15.15;100.00;101319.75;5100965;28;20027;-42
2023/10/14 11:21:14;;;;;;;0.00;0.00;;;;;;;15.43;100.00;101321.56;5109991;28;20035;-44
2023/10/14 11:23:41;;;;;;;0.00;0.00;;;;;;;15.31;100.00;101312.34;5112858;28;20031;-42
2023/10/14 11:26:12;;;;;;;0.00;0.00;;;;;;;15.50;100.00;101322.41;5128971;27;20385;-43
2023/10/14 11:28:45;;;;;;;0.00;0.00;;;;;;;15.61;100.00;101328.31;5112574;28;20023;-42
2023/10/14 11:31:13;;;;;;;0.00;0.00;;;;;;;15.74;100.00;101326.50;5096174;28;20074;-43
2023/10/14 11:33:38;;;;;;;0.00;0.00;;;;;;;15.71;98.48;101329.63;5113084;28;20028;-45
2023/10/14 11:36:05;;;;;;;0.00;0.00;;;;;;;15.91;98.45;101334.28;5113063;28;20371;-41
2023/10/14 11:38:31;;;;;;;0.00;0.00;;;;;;;15.97;96.90;101339.72;5112465;28;20027;-42
2023/10/14 11:41:02;;;;;;;0.00;0.00;;;;;;;16.35;100.00;101344.59;5112867;28;20066;-41